Terminal Aerodrome Forecast
Issued by NWS

Home | Current Version | Previous Version | Text Only | Print | Product List | Glossary On
Versions: 1 2 3 4 5 6 7 8 9 10 11 12 13 14 15 16 17 18 19 20 21 22 23 24 25 26 27 28
000
FTUS43 KDLH 310500
TAFHIB
TAF
KHIB 310531Z 3106/0106 15009KT P6SM OVC007
      TEMPO 3109/3113 1 1/2SM BR OVC005
     FM311300 14006KT 4SM BR OVC015
     FM311800 17011G17KT P6SM VCSH SCT015 BKN050
     FM312300 16011KT 5SM -SHRA VCTS SCT015 BKN050CB
     FM010200 18008KT 3SM TSRA BKN015CB=

USA.gov is the U.S. government's official web portal to all federal, state and local government web resources and services.